sensor_id;sensor_type;location;lat;lon;timestamp;temperature;humidity
67557;DHT22;54387;53.526;49.300;2023-06-22T00:01:19;13.20;51.40
67557;DHT22;54387;53.526;49.300;2023-06-22T00:03:46;13.20;51.40
67557;DHT22;54387;53.526;49.300;2023-06-22T00:06:13;13.20;51.50
67557;DHT22;54387;53.526;49.300;2023-06-22T00:08:40;13.20;52.60
67557;DHT22;54387;53.526;49.300;2023-06-22T00:11:06;13.10;51.60
67557;DHT22;54387;53.526;49.300;2023-06-22T00:13:33;13.10;51.70
67557;DHT22;54387;53.526;49.300;2023-06-22T00:15:59;13.10;51.80
67557;DHT22;54387;53.526;49.300;2023-06-22T00:18:25;13.10;52.00
67557;DHT22;54387;53.526;49.300;2023-06-22T00:20:55;13.10;52.10
67557;DHT22;54387;53.526;49.300;2023-06-22T00:23:24;13.10;52.10
67557;DHT22;54387;53.526;49.300;2023-06-22T00:25:51;13.10;52.30
67557;DHT22;54387;53.526;49.300;2023-06-22T00:28:17;13.10;52.30
67557;DHT22;54387;53.526;49.300;2023-06-22T00:30:43;13.10;52.40
67557;DHT22;54387;53.526;49.300;2023-06-22T00:33:11;13.00;52.30
67557;DHT22;54387;53.526;49.300;2023-06-22T00:35:37;13.10;52.40
67557;DHT22;54387;53.526;49.300;2023-06-22T00:38:03;13.10;52.50
67557;DHT22;54387;53.526;49.300;2023-06-22T00:40:32;13.10;52.50
67557;DHT22;54387;53.526;49.300;2023-06-22T00:42:59;13.10;52.50
67557;DHT22;54387;53.526;49.300;2023-06-22T00:45:26;13.10;52.60
67557;DHT22;54387;53.526;49.300;2023-06-22T00:47:53;13.10;52.60
67557;DHT22;54387;53.526;49.300;2023-06-22T00:50:22;13.10;52.70
67557;DHT22;54387;53.526;49.300;2023-06-22T00:52:53;13.10;52.60
67557;DHT22;54387;53.526;49.300;2023-06-22T00:55:21;13.00;52.70
67557;DHT22;54387;53.526;49.300;2023-06-22T00:57:48;13.00;52.70
67557;DHT22;54387;53.526;49.300;2023-06-22T01:00:18;13.10;52.80
67557;DHT22;54387;53.526;49.300;2023-06-22T01:02:46;13.10;52.80
67557;DHT22;54387;53.526;49.300;2023-06-22T01:05:14;13.10;52.90
67557;DHT22;54387;53.526;49.300;2023-06-22T01:13:03;13.20;53.00
67557;DHT22;54387;53.526;49.300;2023-06-22T01:15:36;13.20;53.00
67557;DHT22;54387;53.526;49.300;2023-06-22T01:18:04;13.20;52.90
67557;DHT22;54387;53.526;49.300;2023-06-22T01:20:34;13.30;52.80
67557;DHT22;54387;53.526;49.300;2023-06-22T01:23:29;13.40;52.80
67557;DHT22;54387;53.526;49.300;2023-06-22T01:28:45;13.40;52.60
67557;DHT22;54387;53.526;49.300;2023-06-22T01:31:18;13.50;52.60
67557;DHT22;54387;53.526;49.300;2023-06-22T01:33:51;13.50;52.40
67557;DHT22;54387;53.526;49.300;2023-06-22T01:36:19;13.60;52.40
67557;DHT22;54387;53.526;49.300;2023-06-22T01:38:47;13.60;52.20
67557;DHT22;54387;53.526;49.300;2023-06-22T01:41:13;13.60;52.10
67557;DHT22;54387;53.526;49.300;2023-06-22T01:43:40;13.70;52.30
67557;DHT22;54387;53.526;49.300;2023-06-22T01:46:08;13.60;52.10
67557;DHT22;54387;53.526;49.300;2023-06-22T01:48:34;13.70;52.10
67557;DHT22;54387;53.526;49.300;2023-06-22T01:51:01;13.70;52.10
67557;DHT22;54387;53.526;49.300;2023-06-22T01:53:27;13.80;52.00
67557;DHT22;54387;53.526;49.300;2023-06-22T01:55:54;13.80;51.90
67557;DHT22;54387;53.526;49.300;2023-06-22T01:58:25;13.80;52.00
67557;DHT22;54387;53.526;49.300;2023-06-22T02:01:09;13.90;51.80
67557;DHT22;54387;53.526;49.300;2023-06-22T02:03:41;14.00;51.80
67557;DHT22;54387;53.526;49.300;2023-06-22T02:06:16;14.00;51.70
67557;DHT22;54387;53.526;49.300;2023-06-22T02:08:53;14.10;51.60
67557;DHT22;54387;53.526;49.300;2023-06-22T02:11:21;14.20;51.30
67557;DHT22;54387;53.526;49.300;2023-06-22T02:13:49;14.30;51.20
67557;DHT22;54387;53.526;49.300;2023-06-22T02:16:16;14.30;51.00
67557;DHT22;54387;53.526;49.300;2023-06-22T02:18:47;14.40;50.80
67557;DHT22;54387;53.526;49.300;2023-06-22T02:21:20;14.40;50.60
67557;DHT22;54387;53.526;49.300;2023-06-22T02:23:47;14.50;50.40
67557;DHT22;54387;53.526;49.300;2023-06-22T02:26:13;14.60;50.10
67557;DHT22;54387;53.526;49.300;2023-06-22T02:28:39;14.60;50.10
67557;DHT22;54387;53.526;49.300;2023-06-22T02:31:06;14.60;49.70
67557;DHT22;54387;53.526;49.300;2023-06-22T02:33:32;14.60;49.70
67557;DHT22;54387;53.526;49.300;2023-06-22T02:35:58;14.60;49.60
67557;DHT22;54387;53.526;49.300;2023-06-22T02:38:24;14.70;49.70
67557;DHT22;54387;53.526;49.300;2023-06-22T02:40:51;14.80;49.60
67557;DHT22;54387;53.526;49.300;2023-06-22T02:43:17;14.90;49.50
67557;DHT22;54387;53.526;49.300;2023-06-22T02:45:43;15.00;49.20
67557;DHT22;54387;53.526;49.300;2023-06-22T02:48:10;15.00;48.70
67557;DHT22;54387;53.526;49.300;2023-06-22T02:50:36;15.10;48.50
67557;DHT22;54387;53.526;49.300;2023-06-22T02:53:03;15.10;48.50
67557;DHT22;54387;53.526;49.300;2023-06-22T02:55:29;15.20;48.50
67557;DHT22;54387;53.526;49.300;2023-06-22T02:57:55;15.20;48.40
67557;DHT22;54387;53.526;49.300;2023-06-22T03:00:23;15.20;48.20
67557;DHT22;54387;53.526;49.300;2023-06-22T03:02:56;15.20;48.40
67557;DHT22;54387;53.526;49.300;2023-06-22T03:05:23;15.30;48.40
67557;DHT22;54387;53.526;49.300;2023-06-22T03:07:50;15.30;48.20
67557;DHT22;54387;53.526;49.300;2023-06-22T03:10:17;15.40;48.20
67557;DHT22;54387;53.526;49.300;2023-06-22T03:12:43;15.50;48.10
67557;DHT22;54387;53.526;49.300;2023-06-22T03:15:11;15.60;48.00
67557;DHT22;54387;53.526;49.300;2023-06-22T03:17:38;15.60;47.50
67557;DHT22;54387;53.526;49.300;2023-06-22T03:20:06;15.70;47.50
67557;DHT22;54387;53.526;49.300;2023-06-22T03:22:39;15.70;47.40
67557;DHT22;54387;53.526;49.300;2023-06-22T03:25:08;15.70;47.30
67557;DHT22;54387;53.526;49.300;2023-06-22T03:27:42;15.70;46.80
67557;DHT22;54387;53.526;49.300;2023-06-22T03:30:11;15.80;46.50
67557;DHT22;54387;53.526;49.300;2023-06-22T03:32:37;15.80;46.40
67557;DHT22;54387;53.526;49.300;2023-06-22T03:35:04;15.80;46.80
67557;DHT22;54387;53.526;49.300;2023-06-22T03:37:32;15.80;46.90
67557;DHT22;54387;53.526;49.300;2023-06-22T03:39:58;15.80;46.90
67557;DHT22;54387;53.526;49.300;2023-06-22T03:42:24;15.80;47.00
67557;DHT22;54387;53.526;49.300;2023-06-22T03:44:50;15.80;46.90
67557;DHT22;54387;53.526;49.300;2023-06-22T03:47:17;15.90;46.90
67557;DHT22;54387;53.526;49.300;2023-06-22T03:49:43;15.90;46.70
67557;DHT22;54387;53.526;49.300;2023-06-22T03:52:10;16.00;46.90
67557;DHT22;54387;53.526;49.300;2023-06-22T03:54:36;16.10;46.70
67557;DHT22;54387;53.526;49.300;2023-06-22T03:57:03;16.20;46.40
67557;DHT22;54387;53.526;49.300;2023-06-22T03:59:30;16.30;46.10
67557;DHT22;54387;53.526;49.300;2023-06-22T04:01:56;16.30;45.60
67557;DHT22;54387;53.526;49.300;2023-06-22T04:04:22;16.40;45.60
67557;DHT22;54387;53.526;49.300;2023-06-22T04:06:49;16.40;46.40
67557;DHT22;54387;53.526;49.300;2023-06-22T04:09:15;16.40;45.20
67557;DHT22;54387;53.526;49.300;2023-06-22T04:11:42;16.50;45.20
67557;DHT22;54387;53.526;49.300;2023-06-22T04:14:08;16.70;44.40
67557;DHT22;54387;53.526;49.300;2023-06-22T04:16:34;16.70;43.80
67557;DHT22;54387;53.526;49.300;2023-06-22T04:19:00;16.80;43.80
67557;DHT22;54387;53.526;49.300;2023-06-22T04:21:27;16.80;43.70
67557;DHT22;54387;53.526;49.300;2023-06-22T04:23:53;16.80;43.90
67557;DHT22;54387;53.526;49.300;2023-06-22T04:26:19;16.80;44.10
67557;DHT22;54387;53.526;49.300;2023-06-22T04:28:47;16.70;44.10
67557;DHT22;54387;53.526;49.300;2023-06-22T04:31:21;16.90;43.30
67557;DHT22;54387;53.526;49.300;2023-06-22T04:33:48;16.90;42.90
67557;DHT22;54387;53.526;49.300;2023-06-22T04:36:17;16.90;43.00
67557;DHT22;54387;53.526;49.300;2023-06-22T04:38:43;17.00;42.30
67557;DHT22;54387;53.526;49.300;2023-06-22T04:41:10;17.00;42.30
67557;DHT22;54387;53.526;49.300;2023-06-22T04:43:40;17.00;42.00
67557;DHT22;54387;53.526;49.300;2023-06-22T04:46:06;17.00;41.90
67557;DHT22;54387;53.526;49.300;2023-06-22T04:48:32;17.20;41.90
67557;DHT22;54387;53.526;49.300;2023-06-22T04:50:59;17.30;41.60
67557;DHT22;54387;53.526;49.300;2023-06-22T04:53:31;17.30;41.50
67557;DHT22;54387;53.526;49.300;2023-06-22T04:55:57;17.40;41.20
67557;DHT22;54387;53.526;49.300;2023-06-22T04:58:23;17.30;40.70
67557;DHT22;54387;53.526;49.300;2023-06-22T05:00:52;17.30;40.80
67557;DHT22;54387;53.526;49.300;2023-06-22T05:03:19;17.40;40.60
67557;DHT22;54387;53.526;49.300;2023-06-22T05:05:45;17.40;40.20
67557;DHT22;54387;53.526;49.300;2023-06-22T05:08:12;17.40;40.10
67557;DHT22;54387;53.526;49.300;2023-06-22T05:10:38;17.40;40.00
67557;DHT22;54387;53.526;49.300;2023-06-22T05:13:05;17.40;40.40
67557;DHT22;54387;53.526;49.300;2023-06-22T05:15:31;17.50;40.20
67557;DHT22;54387;53.526;49.300;2023-06-22T05:18:02;17.60;39.20
67557;DHT22;54387;53.526;49.300;2023-06-22T05:20:31;17.60;39.80
67557;DHT22;54387;53.526;49.300;2023-06-22T05:22:57;17.60;38.90
67557;DHT22;54387;53.526;49.300;2023-06-22T05:25:24;17.70;39.10
67557;DHT22;54387;53.526;49.300;2023-06-22T05:27:50;17.80;38.90
67557;DHT22;54387;53.526;49.300;2023-06-22T05:30:17;17.70;38.80
67557;DHT22;54387;53.526;49.300;2023-06-22T05:32:44;17.70;38.00
67557;DHT22;54387;53.526;49.300;2023-06-22T05:35:10;17.80;38.20
67557;DHT22;54387;53.526;49.300;2023-06-22T05:37:37;17.90;38.00
67557;DHT22;54387;53.526;49.300;2023-06-22T05:40:03;18.10;37.50
67557;DHT22;54387;53.526;49.300;2023-06-22T05:42:30;18.20;37.60
67557;DHT22;54387;53.526;49.300;2023-06-22T05:44:57;18.40;37.00
67557;DHT22;54387;53.526;49.300;2023-06-22T05:47:25;18.40;36.30
67557;DHT22;54387;53.526;49.300;2023-06-22T05:49:51;18.40;36.50
67557;DHT22;54387;53.526;49.300;2023-06-22T05:52:18;18.30;36.10
67557;DHT22;54387;53.526;49.300;2023-06-22T05:54:44;18.20;36.00
67557;DHT22;54387;53.526;49.300;2023-06-22T05:57:10;18.20;35.60
67557;DHT22;54387;53.526;49.300;2023-06-22T05:59:36;18.20;35.20
67557;DHT22;54387;53.526;49.300;2023-06-22T06:02:03;18.30;34.60
67557;DHT22;54387;53.526;49.300;2023-06-22T06:04:29;18.40;34.40
67557;DHT22;54387;53.526;49.300;2023-06-22T06:06:56;18.40;33.20
67557;DHT22;54387;53.526;49.300;2023-06-22T06:09:22;18.40;33.00
67557;DHT22;54387;53.526;49.300;2023-06-22T06:11:49;18.30;32.70
67557;DHT22;54387;53.526;49.300;2023-06-22T06:14:15;18.30;32.50
67557;DHT22;54387;53.526;49.300;2023-06-22T06:16:43;18.20;32.90
67557;DHT22;54387;53.526;49.300;2023-06-22T06:19:09;18.30;33.00
67557;DHT22;54387;53.526;49.300;2023-06-22T06:21:35;18.40;33.00
67557;DHT22;54387;53.526;49.300;2023-06-22T06:24:02;18.50;33.00
67557;DHT22;54387;53.526;49.300;2023-06-22T06:26:28;18.60;33.30
67557;DHT22;54387;53.526;49.300;2023-06-22T06:28:56;18.50;33.50
67557;DHT22;54387;53.526;49.300;2023-06-22T06:31:23;18.70;35.00
67557;DHT22;54387;53.526;49.300;2023-06-22T06:33:49;18.80;33.70
67557;DHT22;54387;53.526;49.300;2023-06-22T06:36:15;19.00;33.70
67557;DHT22;54387;53.526;49.300;2023-06-22T06:38:42;19.00;33.80
67557;DHT22;54387;53.526;49.300;2023-06-22T06:41:08;18.80;34.50
67557;DHT22;54387;53.526;49.300;2023-06-22T06:43:34;18.60;35.20
67557;DHT22;54387;53.526;49.300;2023-06-22T06:46:01;18.30;35.90
67557;DHT22;54387;53.526;49.300;2023-06-22T06:48:29;18.10;36.20
67557;DHT22;54387;53.526;49.300;2023-06-22T06:50:55;18.00;36.40
67557;DHT22;54387;53.526;49.300;2023-06-22T06:53:21;17.90;36.10
67557;DHT22;54387;53.526;49.300;2023-06-22T06:55:47;18.00;36.20
67557;DHT22;54387;53.526;49.300;2023-06-22T06:58:14;18.20;36.10
67557;DHT22;54387;53.526;49.300;2023-06-22T07:00:40;18.30;36.10
67557;DHT22;54387;53.526;49.300;2023-06-22T07:03:07;18.40;35.10
67557;DHT22;54387;53.526;49.300;2023-06-22T07:05:33;18.50;34.60
67557;DHT22;54387;53.526;49.300;2023-06-22T07:07:59;18.50;34.40
67557;DHT22;54387;53.526;49.300;2023-06-22T07:10:26;18.50;35.20
67557;DHT22;54387;53.526;49.300;2023-06-22T07:12:52;18.50;35.40
67557;DHT22;54387;53.526;49.300;2023-06-22T07:15:18;18.50;35.20
67557;DHT22;54387;53.526;49.300;2023-06-22T07:17:44;18.60;34.60
67557;DHT22;54387;53.526;49.300;2023-06-22T07:20:11;18.70;34.00
67557;DHT22;54387;53.526;49.300;2023-06-22T07:22:42;18.70;33.60
67557;DHT22;54387;53.526;49.300;2023-06-22T07:25:08;18.70;33.80
67557;DHT22;54387;53.526;49.300;2023-06-22T07:27:37;18.80;33.50
67557;DHT22;54387;53.526;49.300;2023-06-22T07:30:04;19.10;32.90
67557;DHT22;54387;53.526;49.300;2023-06-22T07:32:30;19.20;32.10
67557;DHT22;54387;53.526;49.300;2023-06-22T07:34:56;19.30;31.90
67557;DHT22;54387;53.526;49.300;2023-06-22T07:37:23;19.30;31.80
67557;DHT22;54387;53.526;49.300;2023-06-22T07:39:49;19.50;30.80
67557;DHT22;54387;53.526;49.300;2023-06-22T07:42:19;19.60;30.40
67557;DHT22;54387;53.526;49.300;2023-06-22T07:44:45;19.70;30.00
67557;DHT22;54387;53.526;49.300;2023-06-22T07:47:12;19.70;29.90
67557;DHT22;54387;53.526;49.300;2023-06-22T07:49:38;19.70;29.60
67557;DHT22;54387;53.526;49.300;2023-06-22T07:52:05;19.70;29.60
67557;DHT22;54387;53.526;49.300;2023-06-22T07:54:32;19.70;29.90
67557;DHT22;54387;53.526;49.300;2023-06-22T07:56:58;19.80;30.00
67557;DHT22;54387;53.526;49.300;2023-06-22T07:59:25;19.80;29.40
67557;DHT22;54387;53.526;49.300;2023-06-22T08:01:51;19.70;29.30
67557;DHT22;54387;53.526;49.300;2023-06-22T08:04:17;19.70;29.30
67557;DHT22;54387;53.526;49.300;2023-06-22T08:06:44;19.70;28.90
67557;DHT22;54387;53.526;49.300;2023-06-22T08:09:10;19.70;29.80
67557;DHT22;54387;53.526;49.300;2023-06-22T08:11:36;19.80;29.20
67557;DHT22;54387;53.526;49.300;2023-06-22T08:14:02;19.80;28.70
67557;DHT22;54387;53.526;49.300;2023-06-22T08:16:29;19.70;28.80
67557;DHT22;54387;53.526;49.300;2023-06-22T08:18:55;19.60;28.70
67557;DHT22;54387;53.526;49.300;2023-06-22T08:21:22;19.60;29.00
67557;DHT22;54387;53.526;49.300;2023-06-22T08:23:48;19.70;28.80
67557;DHT22;54387;53.526;49.300;2023-06-22T08:26:15;19.70;29.10
67557;DHT22;54387;53.526;49.300;2023-06-22T08:28:42;19.80;29.20
67557;DHT22;54387;53.526;49.300;2023-06-22T08:31:08;19.70;29.10
67557;DHT22;54387;53.526;49.300;2023-06-22T08:33:34;19.60;29.50
67557;DHT22;54387;53.526;49.300;2023-06-22T08:36:01;19.60;28.70
67557;DHT22;54387;53.526;49.300;2023-06-22T08:38:27;19.70;26.30
67557;DHT22;54387;53.526;49.300;2023-06-22T08:40:53;20.00;25.60
67557;DHT22;54387;53.526;49.300;2023-06-22T08:43:19;20.10;25.60
67557;DHT22;54387;53.526;49.300;2023-06-22T08:45:46;20.40;25.80
67557;DHT22;54387;53.526;49.300;2023-06-22T08:48:12;20.70;25.40
67557;DHT22;54387;53.526;49.300;2023-06-22T08:50:38;21.00;25.50
67557;DHT22;54387;53.526;49.300;2023-06-22T08:53:06;21.20;24.40
67557;DHT22;54387;53.526;49.300;2023-06-22T08:55:33;21.50;24.50
67557;DHT22;54387;53.526;49.300;2023-06-22T08:58:00;21.90;24.00
67557;DHT22;54387;53.526;49.300;2023-06-22T09:00:27;22.20;23.20
67557;DHT22;54387;53.526;49.300;2023-06-22T09:02:55;22.20;23.00
67557;DHT22;54387;53.526;49.300;2023-06-22T09:05:25;22.30;22.70
67557;DHT22;54387;53.526;49.300;2023-06-22T09:07:52;22.30;22.60
67557;DHT22;54387;53.526;49.300;2023-06-22T09:10:20;22.30;22.50
67557;DHT22;54387;53.526;49.300;2023-06-22T09:12:47;22.00;22.60
67557;DHT22;54387;53.526;49.300;2023-06-22T09:15:13;21.70;23.10
67557;DHT22;54387;53.526;49.300;2023-06-22T09:17:41;21.60;23.10
67557;DHT22;54387;53.526;49.300;2023-06-22T09:20:07;21.70;23.10
67557;DHT22;54387;53.526;49.300;2023-06-22T09:22:36;21.70;23.40
67557;DHT22;54387;53.526;49.300;2023-06-22T09:25:03;22.00;24.00
67557;DHT22;54387;53.526;49.300;2023-06-22T09:27:29;22.40;23.80
67557;DHT22;54387;53.526;49.300;2023-06-22T09:29:56;23.10;23.80
67557;DHT22;54387;53.526;49.300;2023-06-22T09:32:24;24.10;23.20
67557;DHT22;54387;53.526;49.300;2023-06-22T09:34:51;24.80;22.70
67557;DHT22;54387;53.526;49.300;2023-06-22T09:37:19;25.00;21.70
67557;DHT22;54387;53.526;49.300;2023-06-22T09:39:46;24.70;21.70
67557;DHT22;54387;53.526;49.300;2023-06-22T09:42:12;24.40;22.30
67557;DHT22;54387;53.526;49.300;2023-06-22T09:44:39;24.00;22.60
67557;DHT22;54387;53.526;49.300;2023-06-22T09:47:06;23.80;22.30
67557;DHT22;54387;53.526;49.300;2023-06-22T09:49:32;23.40;22.30
67557;DHT22;54387;53.526;49.300;2023-06-22T09:51:58;23.20;22.50
67557;DHT22;54387;53.526;49.300;2023-06-22T09:54:25;23.80;22.90
67557;DHT22;54387;53.526;49.300;2023-06-22T09:56:51;25.60;21.60
67557;DHT22;54387;53.526;49.300;2023-06-22T09:59:18;28.00;21.20
67557;DHT22;54387;53.526;49.300;2023-06-22T10:01:44;29.00;20.90
67557;DHT22;54387;53.526;49.300;2023-06-22T10:04:10;29.60;20.90
67557;DHT22;54387;53.526;49.300;2023-06-22T10:06:37;30.20;20.60
67557;DHT22;54387;53.526;49.300;2023-06-22T10:09:07;30.10;19.90
67557;DHT22;54387;53.526;49.300;2023-06-22T10:11:33;29.60;20.10
67557;DHT22;54387;53.526;49.300;2023-06-22T10:14:01;30.70;19.90
67557;DHT22;54387;53.526;49.300;2023-06-22T10:16:31;33.10;19.30
67557;DHT22;54387;53.526;49.300;2023-06-22T10:18:58;35.10;18.30
67557;DHT22;54387;53.526;49.300;2023-06-22T10:21:25;37.10;18.00
67557;DHT22;54387;53.526;49.300;2023-06-22T10:23:53;38.30;17.40
67557;DHT22;54387;53.526;49.300;2023-06-22T10:26:19;37.20;17.10
67557;DHT22;54387;53.526;49.300;2023-06-22T10:28:45;35.80;17.40
67557;DHT22;54387;53.526;49.300;2023-06-22T10:31:11;34.70;17.40
67557;DHT22;54387;53.526;49.300;2023-06-22T10:33:37;33.30;17.90
67557;DHT22;54387;53.526;49.300;2023-06-22T10:36:04;32.50;18.40
67557;DHT22;54387;53.526;49.300;2023-06-22T10:38:31;31.60;18.80
67557;DHT22;54387;53.526;49.300;2023-06-22T10:40:58;30.40;19.30
67557;DHT22;54387;53.526;49.300;2023-06-22T10:43:24;29.40;20.00
67557;DHT22;54387;53.526;49.300;2023-06-22T10:45:50;30.60;20.00
67557;DHT22;54387;53.526;49.300;2023-06-22T10:48:16;33.30;19.30
67557;DHT22;54387;53.526;49.300;2023-06-22T10:50:42;35.60;18.10
67557;DHT22;54387;53.526;49.300;2023-06-22T10:53:09;35.90;17.70
67557;DHT22;54387;53.526;49.300;2023-06-22T10:55:35;34.70;17.60
67557;DHT22;54387;53.526;49.300;2023-06-22T10:58:01;34.50;18.10
67557;DHT22;54387;53.526;49.300;2023-06-22T11:00:27;34.80;18.00
67557;DHT22;54387;53.526;49.300;2023-06-22T11:02:57;35.00;17.70
67557;DHT22;54387;53.526;49.300;2023-06-22T11:05:25;34.30;17.90
67557;DHT22;54387;53.526;49.300;2023-06-22T11:07:51;33.60;18.30
67557;DHT22;54387;53.526;49.300;2023-06-22T11:10:18;32.80;18.60
67557;DHT22;54387;53.526;49.300;2023-06-22T11:12:44;31.50;18.80
67557;DHT22;54387;53.526;49.300;2023-06-22T11:15:10;30.50;19.10
67557;DHT22;54387;53.526;49.300;2023-06-22T11:17:37;29.60;19.40
67557;DHT22;54387;53.526;49.300;2023-06-22T11:20:03;28.80;19.70
67557;DHT22;54387;53.526;49.300;2023-06-22T11:22:40;28.00;20.40
67557;DHT22;54387;53.526;49.300;2023-06-22T11:25:07;27.10;21.10
67557;DHT22;54387;53.526;49.300;2023-06-22T11:27:33;26.50;21.50
67557;DHT22;54387;53.526;49.300;2023-06-22T11:30:00;26.10;22.50
67557;DHT22;54387;53.526;49.300;2023-06-22T11:32:26;25.80;21.70
67557;DHT22;54387;53.526;49.300;2023-06-22T11:34:52;26.10;21.80
67557;DHT22;54387;53.526;49.300;2023-06-22T11:37:19;27.70;21.40
67557;DHT22;54387;53.526;49.300;2023-06-22T11:39:45;29.80;20.40
67557;DHT22;54387;53.526;49.300;2023-06-22T11:42:11;31.20;19.50
67557;DHT22;54387;53.526;49.300;2023-06-22T11:44:37;32.60;18.50
67557;DHT22;54387;53.526;49.300;2023-06-22T11:47:04;34.10;17.90
67557;DHT22;54387;53.526;49.300;2023-06-22T11:49:31;35.60;17.60
67557;DHT22;54387;53.526;49.300;2023-06-22T11:51:57;36.70;17.00
67557;DHT22;54387;53.526;49.300;2023-06-22T11:54:24;37.00;16.80
67557;DHT22;54387;53.526;49.300;2023-06-22T11:56:50;36.60;17.30
67557;DHT22;54387;53.526;49.300;2023-06-22T11:59:16;37.40;17.20
67557;DHT22;54387;53.526;49.300;2023-06-22T12:01:43;37.70;16.80
67557;DHT22;54387;53.526;49.300;2023-06-22T12:04:09;37.20;16.60
67557;DHT22;54387;53.526;49.300;2023-06-22T12:06:38;37.60;16.80
67557;DHT22;54387;53.526;49.300;2023-06-22T12:09:08;37.10;16.50
67557;DHT22;54387;53.526;49.300;2023-06-22T12:11:34;35.70;17.00
67557;DHT22;54387;53.526;49.300;2023-06-22T12:14:00;35.20;17.40
67557;DHT22;54387;53.526;49.300;2023-06-22T12:16:28;35.50;17.70
67557;DHT22;54387;53.526;49.300;2023-06-22T12:18:55;36.40;17.30
67557;DHT22;54387;53.526;49.300;2023-06-22T12:21:21;37.60;16.90
67557;DHT22;54387;53.526;49.300;2023-06-22T12:23:47;38.50;16.40
67557;DHT22;54387;53.526;49.300;2023-06-22T12:26:14;38.90;16.30
67557;DHT22;54387;53.526;49.300;2023-06-22T12:28:40;39.20;16.30
67557;DHT22;54387;53.526;49.300;2023-06-22T12:31:06;39.40;15.90
67557;DHT22;54387;53.526;49.300;2023-06-22T12:33:33;38.60;15.90
67557;DHT22;54387;53.526;49.300;2023-06-22T12:35:59;37.90;16.00
67557;DHT22;54387;53.526;49.300;2023-06-22T12:38:25;37.30;16.20
67557;DHT22;54387;53.526;49.300;2023-06-22T12:40:52;37.00;16.30
67557;DHT22;54387;53.526;49.300;2023-06-22T12:43:18;37.00;16.50
67557;DHT22;54387;53.526;49.300;2023-06-22T12:45:45;37.10;16.40
67557;DHT22;54387;53.526;49.300;2023-06-22T12:48:11;36.30;16.60
67557;DHT22;54387;53.526;49.300;2023-06-22T12:50:38;35.20;17.60
67557;DHT22;54387;53.526;49.300;2023-06-22T12:53:04;34.40;17.20
67557;DHT22;54387;53.526;49.300;2023-06-22T12:55:32;33.30;17.10
67557;DHT22;54387;53.526;49.300;2023-06-22T12:57:58;32.10;17.50
67557;DHT22;54387;53.526;49.300;2023-06-22T13:00:24;31.30;17.80
67557;DHT22;54387;53.526;49.300;2023-06-22T13:02:51;30.30;18.30
67557;DHT22;54387;53.526;49.300;2023-06-22T13:05:17;29.20;18.80
67557;DHT22;54387;53.526;49.300;2023-06-22T13:07:43;28.30;19.30
67557;DHT22;54387;53.526;49.300;2023-06-22T13:10:10;27.80;19.60
67557;DHT22;54387;53.526;49.300;2023-06-22T13:12:36;27.60;19.90
67557;DHT22;54387;53.526;49.300;2023-06-22T13:15:02;27.50;20.00
67557;DHT22;54387;53.526;49.300;2023-06-22T13:17:29;27.40;20.10
67557;DHT22;54387;53.526;49.300;2023-06-22T13:19:56;27.10;20.30
67557;DHT22;54387;53.526;49.300;2023-06-22T13:22:32;27.00;20.40
67557;DHT22;54387;53.526;49.300;2023-06-22T13:24:59;26.60;20.20
67557;DHT22;54387;53.526;49.300;2023-06-22T13:27:26;26.30;20.70
67557;DHT22;54387;53.526;49.300;2023-06-22T13:29:52;25.90;21.00
67557;DHT22;54387;53.526;49.300;2023-06-22T13:32:19;25.70;21.40
67557;DHT22;54387;53.526;49.300;2023-06-22T13:34:45;25.40;21.30
67557;DHT22;54387;53.526;49.300;2023-06-22T13:37:11;24.90;21.60
67557;DHT22;54387;53.526;49.300;2023-06-22T13:39:37;24.40;22.10
67557;DHT22;54387;53.526;49.300;2023-06-22T13:42:04;24.10;22.50
67557;DHT22;54387;53.526;49.300;2023-06-22T13:44:30;23.80;22.90
67557;DHT22;54387;53.526;49.300;2023-06-22T13:47:01;23.50;23.20
67557;DHT22;54387;53.526;49.300;2023-06-22T13:49:27;23.60;23.30
67557;DHT22;54387;53.526;49.300;2023-06-22T13:51:54;23.60;23.30
67557;DHT22;54387;53.526;49.300;2023-06-22T13:54:20;23.50;23.50
67557;DHT22;54387;53.526;49.300;2023-06-22T13:56:47;23.50;23.60
67557;DHT22;54387;53.526;49.300;2023-06-22T13:59:13;23.50;23.70
67557;DHT22;54387;53.526;49.300;2023-06-22T14:01:40;23.50;23.70
67557;DHT22;54387;53.526;49.300;2023-06-22T14:04:07;23.50;23.60
67557;DHT22;54387;53.526;49.300;2023-06-22T14:06:33;23.20;23.80
67557;DHT22;54387;53.526;49.300;2023-06-22T14:08:59;22.80;24.20
67557;DHT22;54387;53.526;49.300;2023-06-22T14:11:25;22.70;24.50
67557;DHT22;54387;53.526;49.300;2023-06-22T14:13:52;23.00;24.40
67557;DHT22;54387;53.526;49.300;2023-06-22T14:16:19;23.10;24.20
67557;DHT22;54387;53.526;49.300;2023-06-22T14:18:45;23.30;24.10
67557;DHT22;54387;53.526;49.300;2023-06-22T14:21:12;23.30;24.20
67557;DHT22;54387;53.526;49.300;2023-06-22T14:23:38;23.40;24.40
67557;DHT22;54387;53.526;49.300;2023-06-22T14:26:05;23.70;23.80
67557;DHT22;54387;53.526;49.300;2023-06-22T14:28:31;23.70;23.80
67557;DHT22;54387;53.526;49.300;2023-06-22T14:30:58;23.60;24.00
67557;DHT22;54387;53.526;49.300;2023-06-22T14:33:24;23.30;24.10
67557;DHT22;54387;53.526;49.300;2023-06-22T14:35:50;22.90;24.50
67557;DHT22;54387;53.526;49.300;2023-06-22T14:38:16;22.40;25.10
67557;DHT22;54387;53.526;49.300;2023-06-22T14:40:43;22.10;25.70
67557;DHT22;54387;53.526;49.300;2023-06-22T14:43:09;21.90;25.90
67557;DHT22;54387;53.526;49.300;2023-06-22T14:45:35;21.60;26.00
67557;DHT22;54387;53.526;49.300;2023-06-22T14:48:01;21.40;26.20
67557;DHT22;54387;53.526;49.300;2023-06-22T14:50:27;21.10;26.40
67557;DHT22;54387;53.526;49.300;2023-06-22T14:52:54;20.80;26.70
67557;DHT22;54387;53.526;49.300;2023-06-22T14:55:20;20.70;26.90
67557;DHT22;54387;53.526;49.300;2023-06-22T14:57:47;20.50;27.10
67557;DHT22;54387;53.526;49.300;2023-06-22T15:00:13;20.30;27.40
67557;DHT22;54387;53.526;49.300;2023-06-22T15:02:40;20.20;27.70
67557;DHT22;54387;53.526;49.300;2023-06-22T15:05:08;20.00;27.90
67557;DHT22;54387;53.526;49.300;2023-06-22T15:07:39;19.90;28.20
67557;DHT22;54387;53.526;49.300;2023-06-22T15:10:06;19.80;28.60
67557;DHT22;54387;53.526;49.300;2023-06-22T15:12:32;19.70;29.00
67557;DHT22;54387;53.526;49.300;2023-06-22T15:14:58;19.70;29.20
67557;DHT22;54387;53.526;49.300;2023-06-22T15:17:24;19.70;29.30
67557;DHT22;54387;53.526;49.300;2023-06-22T15:19:55;19.70;29.60
67557;DHT22;54387;53.526;49.300;2023-06-22T15:22:21;19.60;29.60